createdAt,value
2023-05-19T00:02:09.006Z,12.95
2023-05-19T00:04:36.396Z,12.83
2023-05-19T00:07:02.853Z,12.87
2023-05-19T00:09:29.257Z,13.28
2023-05-19T00:11:56.088Z,13.75
2023-05-19T00:14:22.441Z,13.88
2023-05-19T00:16:48.874Z,12.85
2023-05-19T00:19:16.189Z,13.36
2023-05-19T00:21:42.363Z,13.58
2023-05-19T00:24:08.484Z,14.17
2023-05-19T00:26:34.688Z,14.34
2023-05-19T00:29:00.856Z,14.34
2023-05-19T00:31:27.084Z,14.20
2023-05-19T00:33:53.217Z,14.20
2023-05-19T00:36:19.321Z,14.43
2023-05-19T00:38:45.463Z,14.38
2023-05-19T00:41:11.612Z,14.63
2023-05-19T00:43:37.751Z,14.44
2023-05-19T00:46:03.938Z,14.01
2023-05-19T00:48:30.230Z,14.50
2023-05-19T00:51:03.483Z,13.62
2023-05-19T00:53:30.843Z,13.39
2023-05-19T00:55:57.690Z,13.18
2023-05-19T00:58:28.414Z,13.15
2023-05-19T01:01:02.523Z,14.01
2023-05-19T01:03:30.917Z,12.50
2023-05-19T01:06:00.930Z,14.05
2023-05-19T01:08:28.454Z,13.18
2023-05-19T01:10:54.655Z,12.45
2023-05-19T01:13:20.947Z,12.49
2023-05-19T01:16:01.019Z,12.90
2023-05-19T01:18:43.939Z,13.77
2023-05-19T01:21:16.357Z,13.93
2023-05-19T01:23:53.524Z,13.93
2023-05-19T01:26:53.510Z,13.53
2023-05-19T01:29:22.534Z,14.03
2023-05-19T01:31:49.768Z,13.20
2023-05-19T01:34:16.585Z,13.86
2023-05-19T01:36:44.271Z,13.68
2023-05-19T01:39:11.235Z,13.65
2023-05-19T01:41:39.644Z,13.74
2023-05-19T01:44:05.876Z,12.90
2023-05-19T01:46:32.142Z,13.49
2023-05-19T01:48:58.545Z,13.65
2023-05-19T01:51:24.682Z,13.62
2023-05-19T01:53:50.855Z,13.03
2023-05-19T01:56:22.767Z,13.32
2023-05-19T01:58:57.481Z,13.37
2023-05-19T02:02:04.804Z,13.65
2023-05-19T02:04:39.258Z,12.85
2023-05-19T02:07:11.710Z,13.32
2023-05-19T02:09:42.260Z,11.75
2023-05-19T02:12:11.265Z,13.14
2023-05-19T02:14:49.476Z,13.37
2023-05-19T02:17:17.513Z,13.46
2023-05-19T02:19:44.118Z,13.59
2023-05-19T02:22:10.246Z,13.31
2023-05-19T02:24:37.016Z,13.36
2023-05-19T02:27:03.363Z,13.17
2023-05-19T02:29:29.469Z,13.33
2023-05-19T02:31:55.693Z,13.10
2023-05-19T02:34:22.267Z,13.27
2023-05-19T02:36:51.584Z,13.35
2023-05-19T02:39:17.767Z,13.31
2023-05-19T02:41:43.904Z,13.27
2023-05-19T02:44:10.015Z,13.17
2023-05-19T02:46:36.222Z,13.34
2023-05-19T02:49:02.442Z,13.33
2023-05-19T02:51:28.595Z,13.30
2023-05-19T02:53:54.795Z,13.11
2023-05-19T02:56:21.133Z,13.10
2023-05-19T02:58:47.387Z,13.30
2023-05-19T03:01:13.557Z,13.24
2023-05-19T03:03:39.894Z,13.10
2023-05-19T03:06:08.008Z,13.09
2023-05-19T03:08:37.979Z,12.82
2023-05-19T03:11:14.779Z,12.90
2023-05-19T03:13:41.167Z,12.87
2023-05-19T03:16:07.550Z,12.91
2023-05-19T03:18:34.261Z,12.81
2023-05-19T03:21:00.372Z,12.62
2023-05-19T03:23:26.649Z,12.44
2023-05-19T03:25:55.726Z,12.93
2023-05-19T03:28:26.560Z,13.08
2023-05-19T03:30:52.905Z,12.93
2023-05-19T03:33:19.334Z,12.97
2023-05-19T03:35:45.805Z,12.98
2023-05-19T03:38:12.012Z,12.96
2023-05-19T03:40:38.216Z,12.92
2023-05-19T03:43:04.410Z,12.89
2023-05-19T03:45:30.641Z,13.13
2023-05-19T03:47:56.897Z,11.73
2023-05-19T03:50:23.207Z,12.71
2023-05-19T03:52:49.435Z,12.72
2023-05-19T03:55:15.711Z,12.76
2023-05-19T03:57:43.637Z,12.82
2023-05-19T04:00:10.627Z,12.81
2023-05-19T04:02:36.835Z,12.83
2023-05-19T04:05:04.447Z,12.48
2023-05-19T04:07:31.033Z,12.89
2023-05-19T04:09:57.174Z,12.81
2023-05-19T04:12:23.313Z,12.81
2023-05-19T04:14:49.425Z,12.79
2023-05-19T04:17:15.555Z,12.73
2023-05-19T04:19:42.881Z,12.78
2023-05-19T04:22:09.017Z,12.72
2023-05-19T04:24:35.487Z,12.61
2023-05-19T04:27:01.819Z,12.73
2023-05-19T04:29:28.848Z,12.73
2023-05-19T04:31:56.510Z,12.49
2023-05-19T04:34:22.598Z,12.68
2023-05-19T04:36:49.780Z,12.77
2023-05-19T04:39:17.189Z,12.67
2023-05-19T04:41:44.172Z,12.92
2023-05-19T04:44:10.426Z,12.88
2023-05-19T04:46:36.685Z,12.59
2023-05-19T04:49:03.012Z,12.79
2023-05-19T04:51:30.737Z,13.06
2023-05-19T04:53:57.316Z,12.69
2023-05-19T04:56:23.494Z,13.07
2023-05-19T04:58:49.982Z,13.17
2023-05-19T05:01:16.231Z,13.19
2023-05-19T05:03:42.823Z,13.22
2023-05-19T05:06:09.041Z,12.94
2023-05-19T05:08:36.655Z,13.48
2023-05-19T05:11:03.395Z,13.51
2023-05-19T05:13:29.861Z,13.48
2023-05-19T05:15:56.350Z,13.53
2023-05-19T05:18:22.841Z,13.62
2023-05-19T05:20:49.321Z,13.59
2023-05-19T05:23:15.959Z,12.93
2023-05-19T05:25:42.959Z,13.60
2023-05-19T05:28:09.242Z,13.62
2023-05-19T05:30:36.004Z,13.73
2023-05-19T05:33:02.427Z,13.68
2023-05-19T05:35:28.727Z,13.33
2023-05-19T05:37:55.678Z,13.89
2023-05-19T05:40:21.847Z,14.13
2023-05-19T05:42:47.981Z,14.03
2023-05-19T05:45:14.138Z,13.99
2023-05-19T05:47:40.885Z,13.83
2023-05-19T05:50:08.917Z,14.02
2023-05-19T05:52:36.554Z,13.81
2023-05-19T05:55:04.349Z,14.12
2023-05-19T05:57:30.444Z,13.73
2023-05-19T05:59:56.910Z,13.62
2023-05-19T06:02:23.140Z,13.78
2023-05-19T06:04:49.332Z,14.07
2023-05-19T06:07:15.469Z,14.06
2023-05-19T06:09:41.568Z,14.21
2023-05-19T06:12:07.862Z,14.34
2023-05-19T06:14:33.976Z,13.53
2023-05-19T06:17:00.135Z,13.59
2023-05-19T06:19:26.292Z,13.96
2023-05-19T06:21:52.430Z,14.00
2023-05-19T06:24:18.585Z,14.23
2023-05-19T06:26:44.794Z,14.34
2023-05-19T06:29:10.875Z,14.18
2023-05-19T06:31:37.008Z,14.21
2023-05-19T06:34:03.123Z,12.82
2023-05-19T06:36:29.268Z,14.55
2023-05-19T06:38:55.636Z,14.81
2023-05-19T06:41:21.790Z,15.07
2023-05-19T06:43:47.927Z,15.11
2023-05-19T06:46:14.221Z,14.89
2023-05-19T06:48:41.754Z,14.62
2023-05-19T06:51:09.550Z,14.26
2023-05-19T06:53:35.910Z,15.44
2023-05-19T06:56:02.038Z,14.81
2023-05-19T06:58:28.238Z,14.34
2023-05-19T07:00:54.359Z,15.10
2023-05-19T07:03:20.660Z,14.64
2023-05-19T07:05:47.230Z,14.92
2023-05-19T07:08:13.372Z,15.61
2023-05-19T07:10:39.493Z,15.47
2023-05-19T07:13:05.815Z,15.94
2023-05-19T07:15:32.019Z,15.85
2023-05-19T07:17:58.205Z,15.98
2023-05-19T07:20:24.359Z,15.57
2023-05-19T07:22:50.518Z,16.46
2023-05-19T07:25:16.760Z,16.25
2023-05-19T07:27:42.937Z,16.22
2023-05-19T07:30:09.421Z,16.54
2023-05-19T07:32:35.634Z,16.88
2023-05-19T07:35:02.174Z,16.55
2023-05-19T07:37:28.314Z,16.91
2023-05-19T07:39:54.496Z,16.82
2023-05-19T07:42:20.767Z,17.31
2023-05-19T07:44:46.874Z,16.87
2023-05-19T07:47:12.985Z,17.25
2023-05-19T07:49:39.145Z,16.67
2023-05-19T07:52:05.575Z,17.15
2023-05-19T07:54:31.761Z,16.83
2023-05-19T07:56:57.895Z,17.29
2023-05-19T07:59:24.069Z,17.67
2023-05-19T08:01:50.353Z,16.72
2023-05-19T08:04:16.694Z,18.19
2023-05-19T08:06:43.762Z,17.35
2023-05-19T08:09:10.287Z,17.40
2023-05-19T08:11:36.487Z,17.76
2023-05-19T08:14:02.814Z,18.06
2023-05-19T08:16:29.131Z,17.65
2023-05-19T08:18:55.347Z,18.65
2023-05-19T08:21:21.741Z,18.03
2023-05-19T08:23:47.890Z,18.77
2023-05-19T08:26:14.073Z,18.32
2023-05-19T08:28:40.164Z,18.37
2023-05-19T08:31:06.492Z,18.71
2023-05-19T08:33:32.629Z,18.86
2023-05-19T08:35:58.918Z,18.62
2023-05-19T08:38:25.771Z,19.23
2023-05-19T08:40:52.110Z,18.35
2023-05-19T08:43:18.517Z,18.86
2023-05-19T08:45:48.190Z,18.24
2023-05-19T08:48:16.644Z,18.96
2023-05-19T08:50:48.504Z,17.79
2023-05-19T08:53:32.503Z,18.02
2023-05-19T08:56:14.734Z,19.06
2023-05-19T08:58:43.029Z,18.39
2023-05-19T09:01:10.561Z,18.45
2023-05-19T09:03:37.554Z,18.89
2023-05-19T09:06:06.414Z,19.03
2023-05-19T09:08:32.889Z,18.58
2023-05-19T09:10:59.939Z,19.30
2023-05-19T09:13:26.202Z,18.62
2023-05-19T09:15:52.852Z,19.23
2023-05-19T09:18:19.019Z,18.77
2023-05-19T09:20:46.403Z,18.85
2023-05-19T09:23:16.938Z,20.14
2023-05-19T09:25:52.718Z,19.90
2023-05-19T09:28:25.070Z,19.89
2023-05-19T09:31:09.739Z,18.90
2023-05-19T09:33:44.380Z,19.53
2023-05-19T09:36:12.007Z,18.66
2023-05-19T09:38:38.687Z,19.75
2023-05-19T09:41:05.930Z,19.07
2023-05-19T09:43:33.625Z,18.65
2023-05-19T09:46:02.524Z,19.89
2023-05-19T09:48:29.556Z,18.94
2023-05-19T09:50:57.221Z,19.36
2023-05-19T09:53:24.541Z,18.91
2023-05-19T09:55:54.806Z,18.33
2023-05-19T09:58:21.292Z,18.15
2023-05-19T10:00:47.796Z,19.03
2023-05-19T10:03:14.092Z,17.51
2023-05-19T10:05:41.294Z,18.26
2023-05-19T10:08:09.532Z,18.60
2023-05-19T10:10:37.555Z,18.72
2023-05-19T10:13:05.135Z,19.43
2023-05-19T10:15:33.170Z,20.05
2023-05-19T10:18:02.681Z,19.32
2023-05-19T10:20:28.864Z,18.79
2023-05-19T10:22:55.057Z,18.54
2023-05-19T10:25:21.196Z,19.37
2023-05-19T10:28:00.671Z,18.59
2023-05-19T10:30:29.283Z,18.85
2023-05-19T10:32:56.723Z,19.05
2023-05-19T10:35:39.761Z,18.66
2023-05-19T10:38:20.919Z,18.95
2023-05-19T10:41:00.612Z,19.16
2023-05-19T10:43:49.065Z,20.08
2023-05-19T10:46:15.334Z,20.37
2023-05-19T10:48:45.855Z,20.60
2023-05-19T10:51:14.254Z,20.16
2023-05-19T10:53:45.478Z,19.89
2023-05-19T10:56:28.615Z,19.15
2023-05-19T10:58:54.760Z,20.27
2023-05-19T11:01:23.940Z,19.29
2023-05-19T11:03:56.726Z,19.43
2023-05-19T11:06:27.091Z,20.80
2023-05-19T11:09:14.569Z,21.38
2023-05-19T11:11:47.600Z,19.53
2023-05-19T11:14:28.130Z,21.03
2023-05-19T11:16:57.437Z,21.10
2023-05-19T11:19:31.878Z,20.73
2023-05-19T11:22:11.835Z,21.22
2023-05-19T11:24:45.479Z,20.15
2023-05-19T11:27:24.158Z,20.97
2023-05-19T11:29:51.242Z,20.95
2023-05-19T11:32:19.427Z,19.83
2023-05-19T11:34:47.608Z,19.90
2023-05-19T11:37:13.744Z,19.97
2023-05-19T11:39:40.351Z,20.66
2023-05-19T11:42:10.063Z,20.56
2023-05-19T11:44:37.682Z,21.52
2023-05-19T11:47:04.742Z,21.52
2023-05-19T11:49:30.906Z,20.77
2023-05-19T11:51:57.222Z,22.41
2023-05-19T11:54:32.444Z,21.33
2023-05-19T11:57:03.106Z,22.30
2023-05-19T11:59:35.600Z,22.21
2023-05-19T12:02:11.791Z,21.45
2023-05-19T12:04:37.988Z,22.39
2023-05-19T12:07:04.225Z,22.18
2023-05-19T12:09:30.344Z,22.59
2023-05-19T12:11:56.539Z,21.69
2023-05-19T12:14:22.659Z,22.01
2023-05-19T12:16:48.858Z,21.31
2023-05-19T12:19:15.139Z,21.43
2023-05-19T12:21:41.483Z,21.98
2023-05-19T12:24:07.920Z,21.32
2023-05-19T12:26:35.269Z,21.44
2023-05-19T12:29:01.402Z,21.18
2023-05-19T12:31:27.621Z,22.28
2023-05-19T12:33:55.047Z,22.29
2023-05-19T12:36:23.207Z,21.54
2023-05-19T12:38:53.421Z,21.36
2023-05-19T12:41:19.583Z,20.54
2023-05-19T12:43:45.693Z,20.57
2023-05-19T12:46:12.742Z,21.27
2023-05-19T12:48:43.512Z,21.31
2023-05-19T12:51:10.390Z,21.99
2023-05-19T12:53:37.267Z,20.98
2023-05-19T12:56:13.420Z,21.01
2023-05-19T12:58:40.777Z,22.41
2023-05-19T13:01:08.025Z,21.85
2023-05-19T13:03:40.067Z,20.82
2023-05-19T13:06:06.495Z,21.38
2023-05-19T13:08:33.086Z,21.39
2023-05-19T13:10:59.186Z,21.75
2023-05-19T13:13:25.401Z,21.92
2023-05-19T13:15:51.587Z,21.99
2023-05-19T13:18:17.877Z,22.09
2023-05-19T13:20:44.642Z,21.58
2023-05-19T13:23:11.381Z,21.20
2023-05-19T13:25:37.682Z,21.32
2023-05-19T13:28:07.322Z,20.81
2023-05-19T13:30:38.373Z,20.34
2023-05-19T13:33:04.660Z,21.16
2023-05-19T13:35:36.444Z,20.42
2023-05-19T13:38:07.426Z,21.24
2023-05-19T13:40:34.128Z,20.97
2023-05-19T13:43:01.437Z,21.56
2023-05-19T13:45:28.009Z,20.82
2023-05-19T13:47:54.331Z,20.80
2023-05-19T13:50:20.900Z,20.65
2023-05-19T13:52:47.324Z,21.39
2023-05-19T13:55:13.460Z,20.65
2023-05-19T13:57:41.554Z,21.24
2023-05-19T14:00:09.993Z,21.27
2023-05-19T14:02:37.370Z,21.56
2023-05-19T14:05:04.008Z,21.11
2023-05-19T14:07:30.497Z,20.85
2023-05-19T14:09:56.712Z,20.37
2023-05-19T14:12:25.574Z,20.36
2023-05-19T14:15:01.220Z,20.34
2023-05-19T14:17:27.856Z,19.50
2023-05-19T14:19:54.052Z,20.30
2023-05-19T14:22:20.180Z,21.27
2023-05-19T14:24:46.420Z,20.35
2023-05-19T14:27:12.581Z,21.70
2023-05-19T14:29:38.686Z,21.01
2023-05-19T14:32:05.321Z,21.30
2023-05-19T14:34:31.503Z,20.91
2023-05-19T14:36:58.340Z,21.59
2023-05-19T14:39:24.470Z,20.49
2023-05-19T14:41:52.195Z,21.22
2023-05-19T14:44:18.334Z,20.62
2023-05-19T14:46:44.540Z,20.86
2023-05-19T14:49:11.030Z,20.50
2023-05-19T14:51:37.132Z,20.74
2023-05-19T14:54:03.321Z,20.94
2023-05-19T14:56:29.602Z,20.25
2023-05-19T14:58:55.812Z,20.34
2023-05-19T15:01:22.057Z,20.20
2023-05-19T15:03:48.272Z,20.33
2023-05-19T15:06:14.450Z,20.04
2023-05-19T15:08:40.832Z,20.39
2023-05-19T15:11:07.337Z,20.71
2023-05-19T15:13:33.573Z,21.23
2023-05-19T15:16:15.502Z,20.81
2023-05-19T15:18:42.231Z,20.93
2023-05-19T15:21:08.549Z,20.82
2023-05-19T15:23:34.711Z,20.96
2023-05-19T15:26:00.863Z,20.85
2023-05-19T15:28:26.997Z,20.08
2023-05-19T15:30:53.209Z,20.30
2023-05-19T15:33:19.345Z,20.26
2023-05-19T15:35:46.994Z,20.40
2023-05-19T15:38:13.122Z,20.06
2023-05-19T15:40:41.063Z,19.73
2023-05-19T15:43:07.187Z,20.72
2023-05-19T15:45:33.308Z,20.68
2023-05-19T15:47:59.433Z,20.68
2023-05-19T15:50:26.048Z,20.29
2023-05-19T15:52:52.296Z,20.72
2023-05-19T15:55:18.511Z,19.93
2023-05-19T15:57:44.839Z,20.23
2023-05-19T16:00:11.727Z,20.29
2023-05-19T16:02:37.926Z,20.68
2023-05-19T16:05:04.388Z,19.92
2023-05-19T16:07:30.532Z,19.95
2023-05-19T16:09:56.825Z,20.31
2023-05-19T16:12:23.916Z,20.48
2023-05-19T16:14:50.180Z,20.14
2023-05-19T16:17:17.379Z,19.80
2023-05-19T16:19:43.550Z,19.51
2023-05-19T16:22:09.850Z,19.13
2023-05-19T16:24:35.960Z,19.83
2023-05-19T16:27:02.177Z,19.65
2023-05-19T16:29:28.273Z,19.55
2023-05-19T16:31:54.519Z,20.15
2023-05-19T16:34:20.714Z,20.04
2023-05-19T16:36:46.835Z,20.16
2023-05-19T16:39:13.015Z,19.98
2023-05-19T16:41:39.156Z,19.45
2023-05-19T16:44:05.315Z,19.71
2023-05-19T16:46:31.751Z,19.70
2023-05-19T16:48:58.018Z,19.62
2023-05-19T16:51:24.141Z,19.61
2023-05-19T16:53:50.349Z,20.07
2023-05-19T16:56:16.462Z,19.66
2023-05-19T16:58:42.597Z,19.42
2023-05-19T17:01:09.832Z,19.61
2023-05-19T17:03:36.041Z,19.83
2023-05-19T17:06:02.237Z,19.21
2023-05-19T17:08:28.414Z,19.20
2023-05-19T17:10:55.006Z,20.49
2023-05-19T17:13:21.196Z,19.55
2023-05-19T17:15:51.765Z,19.67
2023-05-19T17:18:18.414Z,19.67
2023-05-19T17:20:44.661Z,19.35
2023-05-19T17:23:10.849Z,20.18
2023-05-19T17:25:36.994Z,19.80
2023-05-19T17:28:03.308Z,19.67
2023-05-19T17:30:29.471Z,19.86
2023-05-19T17:32:58.262Z,19.20
2023-05-19T17:35:25.218Z,19.46
2023-05-19T17:37:52.543Z,19.65
2023-05-19T17:40:18.682Z,19.51
2023-05-19T17:42:44.873Z,19.29
2023-05-19T17:45:11.798Z,19.50
2023-05-19T17:47:38.047Z,19.57
2023-05-19T17:50:04.657Z,19.52
2023-05-19T17:52:32.189Z,19.56
2023-05-19T17:54:58.523Z,19.38
2023-05-19T17:57:25.807Z,19.15
2023-05-19T17:59:52.265Z,19.22
2023-05-19T18:02:18.689Z,19.12
2023-05-19T18:04:45.223Z,19.25
2023-05-19T18:07:12.699Z,19.75
2023-05-19T18:09:44.589Z,18.99
2023-05-19T18:12:10.813Z,19.20
2023-05-19T18:14:36.905Z,18.94
2023-05-19T18:17:03.160Z,18.97
2023-05-19T18:19:29.493Z,19.30
2023-05-19T18:21:55.763Z,19.08
2023-05-19T18:24:21.939Z,19.39
2023-05-19T18:26:48.172Z,19.30
2023-05-19T18:29:14.298Z,18.99
2023-05-19T18:31:40.997Z,18.98
2023-05-19T18:34:07.151Z,19.13
2023-05-19T18:36:34.912Z,19.06
2023-05-19T18:39:01.350Z,18.37
2023-05-19T18:41:27.601Z,19.05
2023-05-19T18:43:53.961Z,18.51
2023-05-19T18:46:20.199Z,18.68
2023-05-19T18:48:46.635Z,18.74
2023-05-19T18:51:15.017Z,19.21
2023-05-19T18:53:41.104Z,19.16
2023-05-19T18:56:10.867Z,18.79
2023-05-19T18:58:37.029Z,18.94
2023-05-19T19:01:04.409Z,19.34
2023-05-19T19:03:30.764Z,19.27
2023-05-19T19:05:58.131Z,19.25
2023-05-19T19:08:24.420Z,19.04
2023-05-19T19:10:51.086Z,18.87
2023-05-19T19:13:17.659Z,19.12
2023-05-19T19:15:44.298Z,18.94
2023-05-19T19:18:11.298Z,18.16
2023-05-19T19:20:37.545Z,18.45
2023-05-19T19:23:05.829Z,19.50
2023-05-19T19:25:32.635Z,18.68
2023-05-19T19:27:58.755Z,19.26
2023-05-19T19:30:26.488Z,18.85
2023-05-19T19:32:54.174Z,19.33
2023-05-19T19:35:20.335Z,19.42
2023-05-19T19:37:46.434Z,19.47
2023-05-19T19:40:12.841Z,19.23
2023-05-19T19:42:39.662Z,19.19
2023-05-19T19:45:06.432Z,19.38
2023-05-19T19:47:32.723Z,19.36
2023-05-19T19:50:00.354Z,19.39
2023-05-19T19:52:26.435Z,19.17
2023-05-19T19:54:52.547Z,19.33
2023-05-19T19:57:18.728Z,18.97
2023-05-19T19:59:44.940Z,19.05
2023-05-19T20:02:11.208Z,19.04
2023-05-19T20:04:37.697Z,19.05
2023-05-19T20:07:04.808Z,18.87
2023-05-19T20:09:30.958Z,18.95
2023-05-19T20:11:57.063Z,18.92
2023-05-19T20:14:23.313Z,18.97
2023-05-19T20:16:49.414Z,18.97
2023-05-19T20:19:15.720Z,18.93
2023-05-19T20:21:41.900Z,18.84
2023-05-19T20:24:08.044Z,18.75
2023-05-19T20:26:34.164Z,18.49
2023-05-19T20:29:00.444Z,18.79
2023-05-19T20:31:26.617Z,18.80
2023-05-19T20:33:52.802Z,17.55
2023-05-19T20:36:19.082Z,17.83
2023-05-19T20:38:47.132Z,17.66
2023-05-19T20:41:14.044Z,18.27
2023-05-19T20:43:40.192Z,17.01
2023-05-19T20:46:06.595Z,17.79
2023-05-19T20:48:32.922Z,17.90
2023-05-19T20:50:59.060Z,17.86
2023-05-19T20:53:25.364Z,18.00
2023-05-19T20:55:51.563Z,17.43
2023-05-19T20:58:17.705Z,17.67
2023-05-19T21:00:43.868Z,17.38
2023-05-19T21:03:10.824Z,17.96
2023-05-19T21:05:36.979Z,16.75
2023-05-19T21:08:03.177Z,16.71
2023-05-19T21:10:29.276Z,17.42
2023-05-19T21:12:57.706Z,17.29
2023-05-19T21:15:24.035Z,17.56
2023-05-19T21:17:50.242Z,17.37
2023-05-19T21:20:16.347Z,17.27
2023-05-19T21:22:42.466Z,16.27
2023-05-19T21:25:08.766Z,16.42
2023-05-19T21:27:35.608Z,16.89
2023-05-19T21:30:01.804Z,16.21
2023-05-19T21:32:28.937Z,16.82
2023-05-19T21:34:55.052Z,16.69
2023-05-19T21:37:21.349Z,17.28
2023-05-19T21:39:48.027Z,17.37
2023-05-19T21:42:14.142Z,17.42
2023-05-19T21:44:40.464Z,17.47
2023-05-19T21:47:06.583Z,17.58
2023-05-19T21:49:32.692Z,17.66
2023-05-19T21:51:58.793Z,17.44
2023-05-19T21:54:25.007Z,17.40
2023-05-19T21:56:51.110Z,17.57
2023-05-19T21:59:17.215Z,17.49
2023-05-19T22:01:43.506Z,17.35
2023-05-19T22:04:09.932Z,17.53
2023-05-19T22:06:36.187Z,17.46
2023-05-19T22:09:02.439Z,17.51
2023-05-19T22:11:28.777Z,17.44
2023-05-19T22:13:55.145Z,17.36
2023-05-19T22:16:21.429Z,17.51
2023-05-19T22:18:47.604Z,16.65
2023-05-19T22:21:13.816Z,17.34
2023-05-19T22:23:40.088Z,16.72
2023-05-19T22:26:06.470Z,17.00
2023-05-19T22:28:32.576Z,16.80
2023-05-19T22:30:58.680Z,16.02
2023-05-19T22:33:24.849Z,16.43
2023-05-19T22:35:51.120Z,16.43
2023-05-19T22:38:17.247Z,16.27
2023-05-19T22:40:43.423Z,16.08
2023-05-19T22:43:09.644Z,16.68
2023-05-19T22:45:35.991Z,16.71
2023-05-19T22:48:02.468Z,17.02
2023-05-19T22:50:28.805Z,15.50
2023-05-19T22:52:54.993Z,15.35
2023-05-19T22:55:22.535Z,15.53
2023-05-19T22:57:48.714Z,16.55
2023-05-19T23:00:17.802Z,15.16
2023-05-19T23:02:44.195Z,16.12
2023-05-19T23:05:10.475Z,14.90
2023-05-19T23:07:36.606Z,16.04
2023-05-19T23:10:05.201Z,16.81
2023-05-19T23:12:31.364Z,15.86
2023-05-19T23:14:57.602Z,15.92
2023-05-19T23:17:23.790Z,15.69
2023-05-19T23:19:49.978Z,16.55
2023-05-19T23:22:16.561Z,14.97
2023-05-19T23:24:42.664Z,15.74
2023-05-19T23:27:08.750Z,16.63
2023-05-19T23:29:35.131Z,15.87
2023-05-19T23:32:01.272Z,16.83
2023-05-19T23:34:27.381Z,16.15
2023-05-19T23:36:53.981Z,16.49
2023-05-19T23:39:21.294Z,16.78
2023-05-19T23:41:47.449Z,16.61
2023-05-19T23:44:13.610Z,17.05
2023-05-19T23:46:39.873Z,17.19
2023-05-19T23:49:05.982Z,16.48
2023-05-19T23:51:32.103Z,17.07
2023-05-19T23:53:58.271Z,17.17
2023-05-19T23:56:24.419Z,16.46
2023-05-19T23:58:50.873Z,17.10
